createdAt,value
2018-05-02T00:02:23.456Z,100813.06
2018-05-02T00:04:55.026Z,100805.53
2018-05-02T00:07:25.904Z,100808.47
2018-05-02T00:09:57.483Z,100817.34
2018-05-02T00:12:30.888Z,100811.95
2018-05-02T00:15:03.290Z,100811.06
2018-05-02T00:17:35.448Z,100811.86
2018-05-02T00:20:07.482Z,100803.34
2018-05-02T00:22:40.083Z,100797.88
2018-05-02T00:25:14.889Z,100801.47
2018-05-02T00:27:47.680Z,100803.16
2018-05-02T00:30:20.059Z,100800.29
2018-05-02T00:32:51.569Z,100803.37
2018-05-02T00:35:23.189Z,100802.38
2018-05-02T00:37:54.815Z,100798.00
2018-05-02T00:40:26.664Z,100797.92
2018-05-02T00:42:58.444Z,100791.96
2018-05-02T00:46:57.671Z,100809.08
2018-05-02T00:49:29.280Z,100809.23
2018-05-02T00:52:00.972Z,100806.97
2018-05-02T00:54:32.989Z,100808.81
2018-05-02T00:57:05.001Z,100802.96
2018-05-02T00:59:36.841Z,100803.00
2018-05-02T01:02:08.620Z,100808.32
2018-05-02T01:04:40.443Z,100810.27
2018-05-02T01:07:12.134Z,100815.01
2018-05-02T01:09:43.988Z,100809.08
2018-05-02T01:12:15.580Z,100805.98
2018-05-02T01:14:47.867Z,100810.42
2018-05-02T01:17:18.545Z,100819.02
2018-05-02T01:19:50.147Z,100830.89
2018-05-02T01:22:21.579Z,100835.82
2018-05-02T01:26:26.593Z,100839.89
2018-05-02T01:28:58.464Z,100834.09
2018-05-02T01:31:30.270Z,100836.06
2018-05-02T01:34:02.261Z,100839.69
2018-05-02T01:36:34.086Z,100842.17
2018-05-02T01:39:05.772Z,100852.39
2018-05-02T01:41:37.467Z,100849.64
2018-05-02T01:44:09.447Z,100843.98
2018-05-02T01:46:41.233Z,100849.41
2018-05-02T01:49:24.531Z,100848.17
2018-05-02T01:51:57.291Z,100846.78
2018-05-02T01:54:30.077Z,100850.78
2018-05-02T01:57:02.306Z,100849.05
2018-05-02T01:59:35.459Z,100852.51
2018-05-02T02:02:08.112Z,100851.09
2018-05-02T02:04:40.041Z,100856.20
2018-05-02T02:07:12.109Z,100853.97
2018-05-02T02:09:45.590Z,100850.29
2018-05-02T02:12:18.057Z,100855.73
2018-05-02T02:14:50.124Z,100856.63
2018-05-02T02:17:22.036Z,100866.08
2018-05-02T02:19:54.032Z,100866.59
2018-05-02T02:22:28.101Z,100855.18
2018-05-02T02:25:00.052Z,100865.19
2018-05-02T02:27:32.081Z,100863.20
2018-05-02T02:30:03.864Z,100871.73
2018-05-02T02:32:35.972Z,100876.91
2018-05-02T02:35:07.998Z,100883.94
2018-05-02T02:37:40.275Z,100890.34
2018-05-02T02:40:12.075Z,100891.03
2018-05-02T02:42:44.003Z,100896.03
2018-05-02T02:45:15.548Z,100903.94
2018-05-02T02:47:47.449Z,100903.59
2018-05-02T02:50:19.135Z,100904.52
2018-05-02T02:52:50.709Z,100901.43
2018-05-02T02:55:22.481Z,100912.56
2018-05-02T02:57:54.819Z,100904.06
2018-05-02T03:00:26.695Z,100911.22
2018-05-02T03:02:59.555Z,100919.05
2018-05-02T03:05:31.148Z,100921.84
2018-05-02T03:08:03.051Z,100930.61
2018-05-02T03:10:34.913Z,100933.34
2018-05-02T03:14:57.891Z,100936.63
2018-05-02T03:18:30.433Z,100938.41
2018-05-02T03:21:02.335Z,100941.59
2018-05-02T03:23:39.420Z,100940.45
2018-05-02T03:26:11.454Z,100946.36
2018-05-02T03:28:43.609Z,100945.31
2018-05-02T03:31:16.622Z,100946.22
2018-05-02T03:33:48.543Z,100951.42
2018-05-02T03:37:36.272Z,100950.06
2018-05-02T03:40:10.410Z,100949.37
2018-05-02T03:42:45.707Z,100958.06
2018-05-02T03:45:18.427Z,100957.03
2018-05-02T03:47:51.763Z,100957.89
2018-05-02T03:50:23.398Z,100964.11
2018-05-02T03:52:54.970Z,100968.82
2018-05-02T03:55:27.266Z,100966.91
2018-05-02T03:57:59.227Z,100967.62
2018-05-02T04:00:41.774Z,100968.16
2018-05-02T04:03:24.487Z,100974.05
2018-05-02T04:09:09.034Z,100990.28
2018-05-02T04:11:42.847Z,100991.25
2018-05-02T04:14:14.538Z,101000.21
2018-05-02T04:16:46.540Z,101012.19
2018-05-02T04:19:18.557Z,101020.73
2018-05-02T04:21:50.539Z,101028.76
2018-05-02T04:24:22.463Z,101036.48
2018-05-02T04:26:54.050Z,101039.47
2018-05-02T04:29:26.334Z,101050.87
2018-05-02T04:31:57.974Z,101053.36
2018-05-02T04:34:29.855Z,101062.12
2018-05-02T04:37:00.502Z,101061.66
2018-05-02T04:39:33.103Z,101071.55
2018-05-02T04:42:05.278Z,101073.66
2018-05-02T04:44:37.186Z,101069.69
2018-05-02T04:47:09.122Z,101079.02
2018-05-02T04:49:41.744Z,101081.66
2018-05-02T04:52:14.578Z,101088.91
2018-05-02T04:54:47.554Z,101095.95
2018-05-02T04:57:21.268Z,101106.17
2018-05-02T04:59:54.339Z,101096.59
2018-05-02T05:02:28.589Z,101101.23
2018-05-02T05:05:01.606Z,101106.50
2018-05-02T05:07:33.979Z,101106.66
2018-05-02T05:10:06.951Z,101112.52
2018-05-02T05:12:39.975Z,101117.52
2018-05-02T05:15:14.797Z,101115.87
2018-05-02T05:17:48.440Z,101123.91
2018-05-02T05:20:22.437Z,101121.67
2018-05-02T05:22:55.952Z,101127.65
2018-05-02T05:25:27.812Z,101135.02
2018-05-02T05:27:59.468Z,101135.20
2018-05-02T05:30:31.105Z,101132.91
2018-05-02T05:33:03.131Z,101123.77
2018-05-02T05:35:36.472Z,101128.93
2018-05-02T05:38:08.074Z,101131.73
2018-05-02T05:40:39.898Z,101130.05
2018-05-02T05:43:11.426Z,101127.70
2018-05-02T05:45:43.109Z,101130.56
2018-05-02T05:48:15.326Z,101134.61
2018-05-02T05:50:46.929Z,101122.66
2018-05-02T05:53:18.967Z,101121.97
2018-05-02T05:55:52.306Z,101125.62
2018-05-02T05:58:25.730Z,101123.92
2018-05-02T06:00:59.525Z,101125.77
2018-05-02T06:03:33.708Z,101126.24
2018-05-02T06:06:07.722Z,101125.97
2018-05-02T06:08:41.246Z,101120.44
2018-05-02T06:11:13.864Z,101123.16
2018-05-02T06:13:47.565Z,101126.05
2018-05-02T06:16:20.691Z,101124.09
2018-05-02T06:18:54.977Z,101123.17
2018-05-02T06:21:28.448Z,101123.59
2018-05-02T06:24:02.573Z,101124.73
2018-05-02T06:26:35.649Z,101108.95
2018-05-02T06:29:09.076Z,101110.63
2018-05-02T06:31:42.113Z,101108.46
2018-05-02T06:34:15.134Z,101111.54
2018-05-02T06:36:48.534Z,101110.91
2018-05-02T06:39:22.458Z,101105.17
2018-05-02T06:41:55.510Z,101111.67
2018-05-02T06:44:28.530Z,101110.26
2018-05-02T06:47:01.482Z,101107.85
2018-05-02T06:49:34.461Z,101098.88
2018-05-02T06:52:07.993Z,101104.45
2018-05-02T06:54:41.093Z,101103.19
2018-05-02T06:57:13.674Z,101109.98
2018-05-02T06:59:47.293Z,101106.91
2018-05-02T07:02:20.578Z,101112.33
2018-05-02T07:04:53.450Z,101115.81
2018-05-02T07:07:26.556Z,101112.95
2018-05-02T07:09:59.747Z,101114.52
2018-05-02T07:12:33.447Z,101116.14
2018-05-02T07:15:06.296Z,101117.47
2018-05-02T07:17:39.580Z,101124.66
2018-05-02T07:20:13.479Z,101123.00
2018-05-02T07:22:46.003Z,101123.03
2018-05-02T07:25:19.720Z,101126.23
2018-05-02T07:27:52.462Z,101126.97
2018-05-02T07:30:25.531Z,101122.72
2018-05-02T07:32:58.636Z,101122.36
2018-05-02T07:35:31.172Z,101115.89
2018-05-02T07:38:03.970Z,101114.09
2018-05-02T07:40:37.472Z,101111.27
2018-05-02T07:43:10.666Z,101117.64
2018-05-02T07:45:43.461Z,101119.45
2018-05-02T07:48:16.489Z,101115.25
2018-05-02T07:50:49.486Z,101110.84
2018-05-02T07:53:22.293Z,101108.17
2018-05-02T07:55:55.210Z,101108.04
2018-05-02T07:58:28.596Z,101114.50
2018-05-02T08:01:02.380Z,101107.70
2018-05-02T08:03:35.762Z,101104.75
2018-05-02T08:06:08.795Z,101104.33
2018-05-02T08:08:41.587Z,101101.17
2018-05-02T08:11:14.596Z,101107.98
2018-05-02T08:13:47.470Z,101107.70
2018-05-02T08:16:20.376Z,101108.81
2018-05-02T08:18:53.454Z,101105.63
2018-05-02T08:21:26.595Z,101107.95
2018-05-02T08:23:59.467Z,101097.80
2018-05-02T08:26:32.533Z,101085.77
2018-05-02T08:29:06.097Z,101082.02
2018-05-02T08:31:39.483Z,101077.56
2018-05-02T08:34:12.113Z,101077.95
2018-05-02T08:36:45.008Z,101082.88
2018-05-02T08:39:17.833Z,101086.52
2018-05-02T08:41:49.530Z,101091.25
2018-05-02T08:44:22.262Z,101099.39
2018-05-02T08:46:55.160Z,101094.42
2018-05-02T08:49:28.007Z,101091.91
2018-05-02T08:52:01.340Z,101098.59
2018-05-02T08:54:35.353Z,101092.67
2018-05-02T08:57:07.535Z,101094.80
2018-05-02T08:59:40.467Z,101090.67
2018-05-02T09:02:13.485Z,101097.48
2018-05-02T09:04:46.681Z,101095.20
2018-05-02T09:07:20.383Z,101090.39
2018-05-02T09:09:53.110Z,101086.22
2018-05-02T09:12:26.653Z,101080.08
2018-05-02T09:14:59.874Z,101071.41
2018-05-02T09:17:33.278Z,101067.09
2018-05-02T09:20:06.306Z,101065.88
2018-05-02T09:22:39.482Z,101065.30
2018-05-02T09:25:12.308Z,101068.18
2018-05-02T09:27:45.311Z,101071.09
2018-05-02T09:30:17.478Z,101068.50
2018-05-02T09:32:50.443Z,101060.75
2018-05-02T09:35:23.414Z,101060.70
2018-05-02T09:37:56.605Z,101055.13
2018-05-02T09:40:29.950Z,101057.19
2018-05-02T09:43:02.945Z,101051.42
2018-05-02T09:45:36.336Z,101040.74
2018-05-02T09:48:09.398Z,101039.23
2018-05-02T09:50:42.977Z,101034.50
2018-05-02T09:53:16.535Z,101032.20
2018-05-02T09:55:49.407Z,101043.57
2018-05-02T09:58:22.246Z,101046.69
2018-05-02T10:00:55.322Z,101049.64
2018-05-02T10:03:28.250Z,101048.73
2018-05-02T10:06:01.320Z,101053.50
2018-05-02T10:08:34.609Z,101052.09
2018-05-02T10:11:07.409Z,101063.56
2018-05-02T10:13:41.399Z,101063.32
2018-05-02T10:16:13.809Z,101073.97
2018-05-02T10:18:46.794Z,101075.05
2018-05-02T10:21:19.958Z,101067.86
2018-05-02T10:23:52.741Z,101068.41
2018-05-02T10:26:25.413Z,101059.62
2018-05-02T10:28:58.571Z,101055.54
2018-05-02T10:31:31.256Z,101053.87
2018-05-02T10:34:03.638Z,101050.91
2018-05-02T10:36:37.334Z,101045.01
2018-05-02T10:39:11.241Z,101042.08
2018-05-02T10:41:44.377Z,101039.84
2018-05-02T10:44:17.544Z,101031.80
2018-05-02T10:46:51.081Z,101036.17
2018-05-02T10:49:24.412Z,101043.37
2018-05-02T10:51:57.683Z,101049.86
2018-05-02T10:54:31.243Z,101057.66
2018-05-02T10:57:04.542Z,101061.92
2018-05-02T10:59:38.692Z,101060.87
2018-05-02T11:02:12.537Z,101059.52
2018-05-02T11:04:46.544Z,101059.48
2018-05-02T11:07:19.250Z,101062.38
2018-05-02T11:09:52.542Z,101074.52
2018-05-02T11:12:25.241Z,101070.56
2018-05-02T11:14:58.238Z,101067.84
2018-05-02T11:17:31.534Z,101075.72
2018-05-02T11:20:04.676Z,101070.27
2018-05-02T11:22:37.511Z,101078.83
2018-05-02T11:25:10.450Z,101079.17
2018-05-02T11:27:43.637Z,101081.81
2018-05-02T11:30:17.122Z,101094.23
2018-05-02T11:32:50.241Z,101099.77
2018-05-02T11:35:22.933Z,101106.41
2018-05-02T11:37:56.655Z,101101.30
2018-05-02T11:40:29.553Z,101104.06
2018-05-02T11:43:02.987Z,101093.59
2018-05-02T11:45:35.454Z,101112.63
2018-05-02T11:48:07.914Z,101115.86
2018-05-02T11:50:40.931Z,101117.56
2018-05-02T11:53:14.461Z,101121.52
2018-05-02T11:55:47.406Z,101130.53
2018-05-02T11:58:20.104Z,101123.55
2018-05-02T12:00:53.663Z,101125.98
2018-05-02T12:03:26.429Z,101131.81
2018-05-02T12:05:59.407Z,101126.97
2018-05-02T12:08:32.920Z,101125.70
2018-05-02T12:11:05.933Z,101123.86
2018-05-02T12:13:38.757Z,101129.91
2018-05-02T12:16:12.383Z,101131.47
2018-05-02T12:18:45.538Z,101136.91
2018-05-02T12:21:18.792Z,101142.81
2018-05-02T12:23:50.173Z,101146.51
2018-05-02T12:26:23.573Z,101152.53
2018-05-02T12:28:57.234Z,101145.70
2018-05-02T12:31:29.969Z,101152.17
2018-05-02T12:34:03.018Z,101155.31
2018-05-02T12:36:35.954Z,101160.83
2018-05-02T12:39:07.461Z,101158.05
2018-05-02T12:41:40.261Z,101158.48
2018-05-02T12:44:13.431Z,101164.59
2018-05-02T12:46:46.419Z,101166.71
2018-05-02T12:49:19.088Z,101172.26
2018-05-02T12:51:52.767Z,101179.86
2018-05-02T12:54:26.428Z,101183.14
2018-05-02T12:56:59.565Z,101178.30
2018-05-02T12:59:32.999Z,101184.62
2018-05-02T13:02:06.627Z,101190.86
2018-05-02T13:04:39.655Z,101198.23
2018-05-02T13:07:12.604Z,101208.24
2018-05-02T13:09:46.435Z,101212.04
2018-05-02T13:12:19.405Z,101232.06
2018-05-02T13:14:52.406Z,101236.40
2018-05-02T13:17:25.706Z,101242.83
2018-05-02T13:19:59.427Z,101259.30
2018-05-02T13:22:32.446Z,101261.63
2018-05-02T13:25:05.729Z,101271.42
2018-05-02T13:27:39.263Z,101264.50
2018-05-02T13:30:11.932Z,101270.69
2018-05-02T13:32:44.495Z,101270.46
2018-05-02T13:35:17.684Z,101280.10
2018-05-02T13:37:50.703Z,101286.53
2018-05-02T13:40:23.870Z,101295.98
2018-05-02T13:42:57.037Z,101299.82
2018-05-02T13:45:31.069Z,101303.39
2018-05-02T13:48:05.079Z,101298.92
2018-05-02T13:50:38.613Z,101301.49
2018-05-02T13:53:12.537Z,101302.88
2018-05-02T13:55:45.323Z,101301.83
2018-05-02T13:58:22.367Z,101309.23
2018-05-02T14:00:55.952Z,101303.42
2018-05-02T14:03:28.944Z,101295.09
2018-05-02T14:06:02.092Z,101300.02
2018-05-02T14:08:35.023Z,101302.45
2018-05-02T14:11:08.490Z,101314.92
2018-05-02T14:13:41.737Z,101327.25
2018-05-02T14:16:14.734Z,101334.41
2018-05-02T14:18:47.944Z,101333.98
2018-05-02T14:21:21.212Z,101340.64
2018-05-02T14:23:54.324Z,101341.80
2018-05-02T14:26:27.678Z,101346.80
2018-05-02T14:29:00.425Z,101352.06
2018-05-02T14:31:33.363Z,101348.19
2018-05-02T14:34:06.462Z,101356.75
2018-05-02T14:39:11.616Z,101360.89
2018-05-02T14:41:44.669Z,101361.38
2018-05-02T14:44:18.473Z,101366.41
2018-05-02T14:46:51.006Z,101373.31
2018-05-02T14:49:24.633Z,101374.75
2018-05-02T14:51:57.596Z,101370.69
2018-05-02T14:54:30.630Z,101368.13
2018-05-02T14:57:02.492Z,101359.91
2018-05-02T14:59:35.552Z,101367.32
2018-05-02T15:02:08.224Z,101369.76
2018-05-02T15:04:41.695Z,101379.44
2018-05-02T15:07:14.816Z,101380.88
2018-05-02T15:09:48.547Z,101388.05
2018-05-02T15:13:26.472Z,101389.83
2018-05-02T15:15:59.435Z,101397.42
2018-05-02T15:18:32.435Z,101395.30
2018-05-02T15:21:05.584Z,101391.72
2018-05-02T15:23:38.397Z,101391.64
2018-05-02T15:26:11.563Z,101390.83
2018-05-02T15:28:45.154Z,101380.29
2018-05-02T15:31:18.402Z,101376.36
2018-05-02T15:33:51.328Z,101381.94
2018-05-02T15:36:23.943Z,101375.30
2018-05-02T15:38:56.935Z,101372.74
2018-05-02T15:41:29.922Z,101361.95
2018-05-02T15:44:03.012Z,101351.38
2018-05-02T15:46:36.495Z,101346.27
2018-05-02T15:49:09.373Z,101346.07
2018-05-02T15:51:42.651Z,101341.12
2018-05-02T15:54:15.549Z,101336.13
2018-05-02T15:56:49.400Z,101336.82
2018-05-02T15:59:22.458Z,101332.71
2018-05-02T16:01:55.563Z,101328.22
2018-05-02T16:04:28.433Z,101327.44
2018-05-02T16:07:01.572Z,101329.03
2018-05-02T16:09:34.327Z,101331.55
2018-05-02T16:12:05.815Z,101333.80
2018-05-02T16:14:37.404Z,101332.75
2018-05-02T16:17:08.932Z,101336.78
2018-05-02T16:19:40.746Z,101329.81
2018-05-02T16:22:12.511Z,101334.19
2018-05-02T16:24:44.588Z,101336.94
2018-05-02T16:27:18.283Z,101337.95
2018-05-02T16:29:50.026Z,101332.09
2018-05-02T16:32:22.250Z,101335.73
2018-05-02T16:36:17.785Z,101333.36
2018-05-02T16:38:49.540Z,101325.14
2018-05-02T16:41:21.321Z,101324.09
2018-05-02T16:43:53.094Z,101327.77
2018-05-02T16:46:24.539Z,101323.66
2018-05-02T16:48:54.944Z,101323.11
2018-05-02T16:51:26.447Z,101325.73
2018-05-02T16:53:58.230Z,101320.99
2018-05-02T16:56:29.873Z,101322.53
2018-05-02T16:59:01.429Z,101332.42
2018-05-02T17:01:32.988Z,101340.69
2018-05-02T17:04:05.050Z,101332.19
2018-05-02T17:06:36.909Z,101332.50
2018-05-02T17:09:08.469Z,101330.24
2018-05-02T17:11:41.723Z,101334.81
2018-05-02T17:14:15.028Z,101328.08
2018-05-02T17:16:47.621Z,101334.73
2018-05-02T17:19:21.570Z,101332.39
2018-05-02T17:21:54.764Z,101335.60
2018-05-02T17:24:28.570Z,101338.59
2018-05-02T17:27:01.402Z,101344.11
2018-05-02T17:29:34.538Z,101340.17
2018-05-02T17:32:07.258Z,101351.96
2018-05-02T17:34:40.247Z,101363.44
2018-05-02T17:37:12.957Z,101370.67
2018-05-02T17:39:46.235Z,101380.36
2018-05-02T17:42:19.411Z,101380.15
2018-05-02T17:44:52.467Z,101382.03
2018-05-02T17:47:25.413Z,101378.84
2018-05-02T17:49:58.645Z,101385.49
2018-05-02T17:52:31.098Z,101386.48
2018-05-02T17:55:04.264Z,101386.44
2018-05-02T17:57:36.742Z,101394.08
2018-05-02T18:00:10.420Z,101387.98
2018-05-02T18:02:43.416Z,101391.95
2018-05-02T18:05:16.330Z,101388.80
2018-05-02T18:07:48.419Z,101383.08
2018-05-02T18:10:21.729Z,101395.66
2018-05-02T18:12:54.538Z,101391.94
2018-05-02T18:15:28.544Z,101384.47
2018-05-02T18:18:01.895Z,101389.03
2018-05-02T18:20:34.890Z,101386.16
2018-05-02T18:23:07.980Z,101388.64
2018-05-02T18:25:41.111Z,101387.30
2018-05-02T18:28:14.458Z,101381.05
2018-05-02T18:30:47.432Z,101388.51
2018-05-02T18:33:20.482Z,101376.55
2018-05-02T18:35:53.441Z,101376.56
2018-05-02T18:38:26.482Z,101379.50
2018-05-02T18:40:59.332Z,101367.31
2018-05-02T18:43:32.690Z,101366.27
2018-05-02T18:46:05.440Z,101365.77
2018-05-02T18:48:38.595Z,101364.59
2018-05-02T18:51:11.439Z,101371.99
2018-05-02T18:53:45.444Z,101366.45
2018-05-02T18:56:18.556Z,101374.61
2018-05-02T18:58:52.336Z,101384.81
2018-05-02T19:01:24.429Z,101390.09
2018-05-02T19:03:57.630Z,101391.62
2018-05-02T19:06:30.911Z,101389.54
2018-05-02T19:09:02.485Z,101390.02
2018-05-02T19:11:34.962Z,101381.43
2018-05-02T19:14:08.491Z,101380.34
2018-05-02T19:16:40.558Z,101385.29
2018-05-02T19:19:19.264Z,101385.81
2018-05-02T19:21:51.561Z,101380.28
2018-05-02T19:24:25.349Z,101384.26
2018-05-02T19:26:58.879Z,101379.42
2018-05-02T19:29:32.520Z,101368.33
2018-05-02T19:32:10.242Z,101374.20
2018-05-02T19:34:42.569Z,101376.98
2018-05-02T19:37:15.768Z,101378.63
2018-05-02T19:39:53.079Z,101389.08
2018-05-02T19:42:30.788Z,101384.16
2018-05-02T19:45:04.493Z,101386.41
2018-05-02T19:47:37.591Z,101384.98
2018-05-02T19:50:10.943Z,101385.67
2018-05-02T19:52:48.479Z,101388.55
2018-05-02T19:55:21.047Z,101389.71
2018-05-02T19:57:53.957Z,101385.65
2018-05-02T20:00:31.965Z,101390.16
2018-05-02T20:03:04.953Z,101386.56
2018-05-02T20:05:37.991Z,101382.77
2018-05-02T20:10:06.348Z,101391.80
2018-05-02T20:12:43.254Z,101380.31
2018-05-02T20:15:16.454Z,101379.70
2018-05-02T20:17:50.087Z,101383.08
2018-05-02T20:20:23.139Z,101377.48
2018-05-02T20:22:56.413Z,101377.75
2018-05-02T20:25:30.689Z,101377.05
2018-05-02T20:28:03.673Z,101384.41
2018-05-02T20:30:37.515Z,101380.86
2018-05-02T20:33:11.434Z,101384.97
2018-05-02T20:35:43.992Z,101382.65
2018-05-02T20:38:17.525Z,101389.72
2018-05-02T20:40:50.471Z,101397.50
2018-05-02T20:43:24.260Z,101397.02
2018-05-02T20:45:57.864Z,101398.78
2018-05-02T20:48:31.518Z,101399.27
2018-05-02T20:51:04.827Z,101401.02
2018-05-02T20:53:37.357Z,101403.59
2018-05-02T20:56:10.265Z,101410.39
2018-05-02T20:58:42.568Z,101402.94
2018-05-02T21:01:15.560Z,101404.17
2018-05-02T21:03:48.777Z,101408.80
2018-05-02T21:06:21.583Z,101413.76
2018-05-02T21:08:55.919Z,101416.34
2018-05-02T21:11:28.275Z,101421.80
2018-05-02T21:14:01.363Z,101411.51
2018-05-02T21:16:34.674Z,101409.67
2018-05-02T21:19:08.522Z,101417.23
2018-05-02T21:21:41.738Z,101415.23
2018-05-02T21:24:15.000Z,101409.25
2018-05-02T21:26:48.447Z,101407.74
2018-05-02T21:29:22.131Z,101407.18
2018-05-02T21:31:55.734Z,101398.91
2018-05-02T21:34:28.460Z,101400.03
2018-05-02T21:37:01.153Z,101396.81
2018-05-02T21:39:34.551Z,101390.25
2018-05-02T21:42:07.974Z,101392.50
2018-05-02T21:44:40.465Z,101386.97
2018-05-02T21:47:13.477Z,101377.92
2018-05-02T21:49:46.643Z,101381.78
2018-05-02T21:52:19.646Z,101384.54
2018-05-02T21:54:53.103Z,101385.15
2018-05-02T21:57:26.482Z,101384.36
2018-05-02T21:59:59.620Z,101384.73
2018-05-02T22:02:32.744Z,101383.38
2018-05-02T22:05:05.774Z,101380.75
2018-05-02T22:07:40.288Z,101384.45
2018-05-02T22:10:14.490Z,101377.00
2018-05-02T22:12:47.492Z,101381.54
2018-05-02T22:15:20.665Z,101376.09
2018-05-02T22:17:53.444Z,101380.50
2018-05-02T22:20:26.091Z,101380.28
2018-05-02T22:22:58.942Z,101373.56
2018-05-02T22:25:32.090Z,101370.16
2018-05-02T22:28:05.290Z,101375.59
2018-05-02T22:30:38.174Z,101379.80
2018-05-02T22:33:10.486Z,101379.25
2018-05-02T22:35:44.405Z,101376.77
2018-05-02T22:38:18.270Z,101379.73
2018-05-02T22:40:51.556Z,101378.19
2018-05-02T22:43:25.548Z,101379.84
2018-05-02T22:45:58.926Z,101389.00
2018-05-02T22:48:31.226Z,101384.50
2018-05-02T22:51:04.688Z,101382.67
2018-05-02T22:53:38.136Z,101383.59
2018-05-02T22:56:10.968Z,101381.92
2018-05-02T22:58:44.451Z,101382.84
2018-05-02T23:01:17.661Z,101388.12
2018-05-02T23:03:50.720Z,101384.12
2018-05-02T23:06:23.943Z,101388.49
2018-05-02T23:08:56.951Z,101396.77
2018-05-02T23:11:28.558Z,101400.88
2018-05-02T23:14:02.467Z,101397.77
2018-05-02T23:16:35.799Z,101401.53
2018-05-02T23:19:09.620Z,101405.81
2018-05-02T23:21:42.271Z,101405.81
2018-05-02T23:24:15.245Z,101396.25
2018-05-02T23:26:47.977Z,101402.45
2018-05-02T23:29:20.448Z,101410.16
2018-05-02T23:31:53.421Z,101412.16
2018-05-02T23:34:26.509Z,101419.03
2018-05-02T23:37:00.233Z,101422.97
2018-05-02T23:39:33.049Z,101427.89
2018-05-02T23:42:05.690Z,101418.44
2018-05-02T23:45:02.457Z,101425.05
2018-05-02T23:47:34.973Z,101420.84
2018-05-02T23:50:08.204Z,101428.73
2018-05-02T23:52:40.888Z,101430.05
2018-05-02T23:55:13.260Z,101432.67
2018-05-02T23:57:46.085Z,101436.09
